createdAt,value
2023-04-26T00:00:53.499Z,29.75
2023-04-26T00:01:53.523Z,29.76
2023-04-26T00:02:53.774Z,29.75
2023-04-26T00:03:53.827Z,29.76
2023-04-26T00:04:53.899Z,29.81
2023-04-26T00:05:53.759Z,29.88
2023-04-26T00:06:53.755Z,29.82
2023-04-26T00:07:53.807Z,29.88
2023-04-26T00:08:54.217Z,29.92
2023-04-26T00:09:53.905Z,29.92
2023-04-26T00:10:53.986Z,29.99
2023-04-26T00:11:54.010Z,29.93
2023-04-26T00:12:54.062Z,29.96
2023-04-26T00:13:54.123Z,29.96
2023-04-26T00:14:54.168Z,30.01
2023-04-26T00:15:54.250Z,30.02
2023-04-26T00:16:54.285Z,30.06
2023-04-26T00:17:54.350Z,30.06
2023-04-26T00:18:54.813Z,30.08
2023-04-26T00:19:54.457Z,30.10
2023-04-26T00:20:54.491Z,30.07
2023-04-26T00:21:54.541Z,30.12
2023-04-26T00:22:54.600Z,30.11
2023-04-26T00:23:54.655Z,30.09
2023-04-26T00:24:54.717Z,30.10
2023-04-26T00:25:54.765Z,30.11
2023-04-26T00:26:54.849Z,30.06
2023-04-26T00:27:54.874Z,30.14
2023-04-26T00:28:55.113Z,30.11
2023-04-26T00:29:54.990Z,30.16
2023-04-26T00:30:55.042Z,30.17
2023-04-26T00:31:55.140Z,30.25
2023-04-26T00:32:55.183Z,30.18
2023-04-26T00:33:55.217Z,30.15
2023-04-26T00:34:55.281Z,30.21
2023-04-26T00:35:55.330Z,30.18
2023-04-26T00:36:55.393Z,30.18
2023-04-26T00:37:55.450Z,30.19
2023-04-26T00:38:55.709Z,30.21
2023-04-26T00:39:55.571Z,30.18
2023-04-26T00:40:55.626Z,30.22
2023-04-26T00:41:55.696Z,30.23
2023-04-26T00:42:55.768Z,30.21
2023-04-26T00:43:55.823Z,30.25
2023-04-26T00:44:55.870Z,30.27
2023-04-26T00:45:55.974Z,30.23
2023-04-26T00:46:55.988Z,30.25
2023-04-26T00:47:56.100Z,30.23
2023-04-26T00:48:56.097Z,30.31
2023-04-26T00:49:56.179Z,30.23
2023-04-26T00:50:56.218Z,30.25
2023-04-26T00:51:56.278Z,30.27
2023-04-26T00:52:56.340Z,30.25
2023-04-26T00:53:56.408Z,30.26
2023-04-26T00:54:56.474Z,30.26
2023-04-26T00:55:56.653Z,30.27
2023-04-26T00:56:56.576Z,30.25
2023-04-26T00:57:56.631Z,30.27
2023-04-26T00:58:56.715Z,30.30
2023-04-26T00:59:56.761Z,30.23
2023-04-26T01:00:56.864Z,30.23
2023-04-26T01:01:56.936Z,30.27
2023-04-26T01:02:57.130Z,30.27
2023-04-26T01:03:57.204Z,30.32
2023-04-26T01:04:57.072Z,30.30
2023-04-26T01:05:57.133Z,30.30
2023-04-26T01:06:57.182Z,30.32
2023-04-26T01:07:57.261Z,30.34
2023-04-26T01:08:57.322Z,30.34
2023-04-26T01:09:57.379Z,30.33
2023-04-26T01:10:57.445Z,30.30
2023-04-26T01:11:57.508Z,30.31
2023-04-26T01:12:57.574Z,30.30
2023-04-26T01:13:57.637Z,30.32
2023-04-26T01:14:57.723Z,30.34
2023-04-26T01:15:57.757Z,30.35
2023-04-26T01:16:57.896Z,30.34
2023-04-26T01:17:57.925Z,30.34
2023-04-26T01:18:57.954Z,30.31
2023-04-26T01:19:57.989Z,30.31
2023-04-26T01:20:58.057Z,30.34
2023-04-26T01:21:58.106Z,30.39
2023-04-26T01:22:58.178Z,30.36
2023-04-26T01:23:58.233Z,30.38
2023-04-26T01:24:58.318Z,30.35
2023-04-26T01:25:58.361Z,30.35
2023-04-26T01:26:58.450Z,30.38
2023-04-26T01:27:58.490Z,30.31
2023-04-26T01:28:58.555Z,30.34
2023-04-26T01:29:58.611Z,30.35
2023-04-26T01:30:58.766Z,30.36
2023-04-26T01:31:58.738Z,30.35
2023-04-26T01:32:58.823Z,30.36
2023-04-26T01:33:58.868Z,30.35
2023-04-26T01:34:58.936Z,30.39
2023-04-26T01:35:58.988Z,30.36
2023-04-26T01:36:59.060Z,30.37
2023-04-26T01:37:59.112Z,30.40
2023-04-26T01:38:59.181Z,30.43
2023-04-26T01:39:59.235Z,30.40
2023-04-26T01:40:59.314Z,30.40
2023-04-26T01:41:59.349Z,30.43
2023-04-26T01:42:59.414Z,30.43
2023-04-26T01:43:59.489Z,30.41
2023-04-26T01:44:59.536Z,30.46
2023-04-26T01:45:59.673Z,30.40
2023-04-26T01:46:59.691Z,30.42
2023-04-26T01:47:59.747Z,30.40
2023-04-26T01:48:59.809Z,30.47
2023-04-26T01:49:59.860Z,30.44
2023-04-26T01:50:59.926Z,30.40
2023-04-26T01:51:59.989Z,30.42
2023-04-26T01:53:00.050Z,30.45
2023-04-26T01:54:00.137Z,30.38
2023-04-26T01:55:00.184Z,30.46
2023-04-26T01:56:00.255Z,30.40
2023-04-26T01:57:00.314Z,30.43
2023-04-26T01:58:00.378Z,30.47
2023-04-26T01:59:00.445Z,30.41
2023-04-26T02:00:00.511Z,30.40
2023-04-26T02:01:00.577Z,30.42
2023-04-26T02:02:00.821Z,30.44
2023-04-26T02:03:00.894Z,30.47
2023-04-26T02:04:00.784Z,30.48
2023-04-26T02:05:00.852Z,30.45
2023-04-26T02:06:00.902Z,30.51
2023-04-26T02:07:00.960Z,30.48
2023-04-26T02:08:01.028Z,30.47
2023-04-26T02:09:01.096Z,30.50
2023-04-26T02:10:01.162Z,30.44
2023-04-26T02:11:01.212Z,30.50
2023-04-26T02:12:01.263Z,30.51
2023-04-26T02:13:01.329Z,30.52
2023-04-26T02:14:01.398Z,30.48
2023-04-26T02:15:01.458Z,30.50
2023-04-26T02:16:01.522Z,30.47
2023-04-26T02:17:01.576Z,30.47
2023-04-26T02:18:01.674Z,30.53
2023-04-26T02:19:01.855Z,30.47
2023-04-26T02:20:01.788Z,30.53
2023-04-26T02:21:01.821Z,30.46
2023-04-26T02:22:01.890Z,30.44
2023-04-26T02:23:01.958Z,30.46
2023-04-26T02:24:02.050Z,30.43
2023-04-26T02:25:02.097Z,30.47
2023-04-26T02:26:02.183Z,30.43
2023-04-26T02:27:02.219Z,30.47
2023-04-26T02:28:02.288Z,30.48
2023-04-26T02:29:02.355Z,30.44
2023-04-26T02:30:02.411Z,30.48
2023-04-26T02:31:02.501Z,30.52
2023-04-26T02:32:02.560Z,30.47
2023-04-26T02:33:02.695Z,30.48
2023-04-26T02:34:02.688Z,30.50
2023-04-26T02:35:02.787Z,30.51
2023-04-26T02:36:02.816Z,30.54
2023-04-26T02:37:02.878Z,30.51
2023-04-26T02:38:02.946Z,30.51
2023-04-26T02:39:03.010Z,30.47
2023-04-26T02:40:03.069Z,30.51
2023-04-26T02:41:03.144Z,30.50
2023-04-26T02:42:03.219Z,30.50
2023-04-26T02:43:03.262Z,30.51
2023-04-26T02:44:03.333Z,30.52
2023-04-26T02:45:03.399Z,30.56
2023-04-26T02:46:03.459Z,30.58
2023-04-26T02:47:03.650Z,30.56
2023-04-26T02:48:03.641Z,30.58
2023-04-26T02:49:03.675Z,30.56
2023-04-26T02:50:03.718Z,30.53
2023-04-26T02:51:03.810Z,30.59
2023-04-26T02:52:03.847Z,30.54
2023-04-26T02:53:03.914Z,30.56
2023-04-26T02:54:06.400Z,30.60
2023-04-26T02:55:03.993Z,30.56
2023-04-26T02:56:04.008Z,30.52
2023-04-26T02:57:04.018Z,30.59
2023-04-26T02:58:04.024Z,30.50
2023-04-26T02:59:04.024Z,30.56
2023-04-26T03:00:04.038Z,30.56
2023-04-26T03:01:04.098Z,30.52
2023-04-26T03:02:04.085Z,30.54
2023-04-26T03:03:04.194Z,30.55
2023-04-26T03:04:04.107Z,30.58
2023-04-26T03:05:04.082Z,30.54
2023-04-26T03:06:04.093Z,30.56
2023-04-26T03:07:04.133Z,30.52
2023-04-26T03:08:04.126Z,30.52
2023-04-26T03:09:04.131Z,30.54
2023-04-26T03:10:04.142Z,30.48
2023-04-26T03:11:04.152Z,30.50
2023-04-26T03:12:04.151Z,30.51
2023-04-26T03:13:04.162Z,30.46
2023-04-26T03:14:04.189Z,30.50
2023-04-26T03:15:04.195Z,30.51
2023-04-26T03:16:04.278Z,30.53
2023-04-26T03:17:04.220Z,30.51
2023-04-26T03:18:04.243Z,30.51
2023-04-26T03:19:04.220Z,30.54
2023-04-26T03:20:04.230Z,30.47
2023-04-26T03:21:04.276Z,30.53
2023-04-26T03:22:04.352Z,30.51
2023-04-26T03:23:04.440Z,30.49
2023-04-26T03:24:04.474Z,30.46
2023-04-26T03:25:04.530Z,30.46
2023-04-26T03:26:04.594Z,30.46
2023-04-26T03:27:04.641Z,30.42
2023-04-26T03:28:04.698Z,30.44
2023-04-26T03:29:04.758Z,30.35
2023-04-26T03:30:04.795Z,30.36
2023-04-26T03:31:04.878Z,30.29
2023-04-26T03:32:05.053Z,30.32
2023-04-26T03:33:05.020Z,30.34
2023-04-26T03:34:04.976Z,30.29
2023-04-26T03:35:05.022Z,30.29
2023-04-26T03:36:05.045Z,30.29
2023-04-26T03:37:05.067Z,30.28
2023-04-26T03:38:05.099Z,30.26
2023-04-26T03:39:05.183Z,30.28
2023-04-26T03:40:05.165Z,30.24
2023-04-26T03:41:05.181Z,30.32
2023-04-26T03:42:05.205Z,30.22
2023-04-26T03:43:05.232Z,30.20
2023-04-26T03:44:05.263Z,30.22
2023-04-26T03:45:05.300Z,30.23
2023-04-26T03:46:05.336Z,30.20
2023-04-26T03:47:05.379Z,30.22
2023-04-26T03:48:05.465Z,30.25
2023-04-26T03:49:05.406Z,30.25
2023-04-26T03:50:05.440Z,30.15
2023-04-26T03:51:05.480Z,30.18
2023-04-26T03:52:05.501Z,30.19
2023-04-26T03:53:05.529Z,30.24
2023-04-26T03:54:05.562Z,30.19
2023-04-26T03:55:05.619Z,30.20
2023-04-26T03:56:05.617Z,30.24
2023-04-26T03:57:05.646Z,30.20
2023-04-26T03:58:05.670Z,30.20
2023-04-26T03:59:05.699Z,30.24
2023-04-26T04:00:05.731Z,30.25
2023-04-26T04:01:05.757Z,30.21
2023-04-26T04:02:05.807Z,30.20
2023-04-26T04:03:06.013Z,30.24
2023-04-26T04:04:06.016Z,30.18
2023-04-26T04:05:06.010Z,30.18
2023-04-26T04:06:05.880Z,30.17
2023-04-26T04:07:05.903Z,30.14
2023-04-26T04:08:05.932Z,30.14
2023-04-26T04:09:05.951Z,30.15
2023-04-26T04:10:05.976Z,30.17
2023-04-26T04:11:06.009Z,30.15
2023-04-26T04:12:06.014Z,30.14
2023-04-26T04:13:06.043Z,30.15
2023-04-26T04:14:06.048Z,30.16
2023-04-26T04:15:06.066Z,30.21
2023-04-26T04:16:06.145Z,30.15
2023-04-26T04:17:06.094Z,30.13
2023-04-26T04:18:06.141Z,30.13
2023-04-26T04:19:06.140Z,30.10
2023-04-26T04:20:06.152Z,30.08
2023-04-26T04:21:06.187Z,30.09
2023-04-26T04:22:06.198Z,30.14
2023-04-26T04:23:06.221Z,30.14
2023-04-26T04:24:06.241Z,30.08
2023-04-26T04:25:06.264Z,30.15
2023-04-26T04:26:06.280Z,30.12
2023-04-26T04:27:06.329Z,30.09
2023-04-26T04:28:06.332Z,30.12
2023-04-26T04:29:06.329Z,30.12
2023-04-26T04:30:06.346Z,30.12
2023-04-26T04:31:06.364Z,30.05
2023-04-26T04:32:06.385Z,30.11
2023-04-26T04:33:06.426Z,30.07
2023-04-26T04:34:06.399Z,30.09
2023-04-26T04:35:06.414Z,30.07
2023-04-26T04:36:06.414Z,30.09
2023-04-26T04:37:06.420Z,30.07
2023-04-26T04:38:06.434Z,30.04
2023-04-26T04:39:06.446Z,30.10
2023-04-26T04:40:06.458Z,30.08
2023-04-26T04:41:06.466Z,30.04
2023-04-26T04:42:06.486Z,30.08
2023-04-26T04:43:06.514Z,30.06
2023-04-26T04:44:06.508Z,30.06
2023-04-26T04:45:06.512Z,30.06
2023-04-26T04:46:06.533Z,30.07
2023-04-26T04:47:06.519Z,30.08
2023-04-26T04:48:06.571Z,30.04
2023-04-26T04:49:06.523Z,29.91
2023-04-26T04:50:06.534Z,29.84
2023-04-26T04:51:06.531Z,29.68
2023-04-26T04:52:06.547Z,29.61
2023-04-26T04:53:06.550Z,29.66
2023-04-26T04:54:06.544Z,29.66
2023-04-26T04:55:06.552Z,29.74
2023-04-26T04:56:06.579Z,29.76
2023-04-26T04:57:06.594Z,29.71
2023-04-26T04:58:06.586Z,29.80
2023-04-26T04:59:06.631Z,29.81
2023-04-26T05:00:06.614Z,29.81
2023-04-26T05:01:06.621Z,29.80
2023-04-26T05:02:06.684Z,29.82
2023-04-26T05:03:06.741Z,29.80
2023-04-26T05:04:06.985Z,29.79
2023-04-26T05:05:06.911Z,29.84
2023-04-26T05:06:06.689Z,29.86
2023-04-26T05:07:06.919Z,29.87
2023-04-26T05:08:06.716Z,29.90
2023-04-26T05:09:06.716Z,29.84
2023-04-26T05:10:06.743Z,29.87
2023-04-26T05:11:06.752Z,29.73
2023-04-26T05:12:06.756Z,29.64
2023-04-26T05:13:06.762Z,29.63
2023-04-26T05:14:06.766Z,29.64
2023-04-26T05:15:06.798Z,29.52
2023-04-26T05:16:06.810Z,29.41
2023-04-26T05:17:06.992Z,29.33
2023-04-26T05:18:06.797Z,29.25
2023-04-26T05:19:09.346Z,29.22
2023-04-26T05:20:06.754Z,29.23
2023-04-26T05:21:06.744Z,29.54
2023-04-26T05:22:06.738Z,29.76
2023-04-26T05:23:06.783Z,29.86
2023-04-26T05:24:06.723Z,30.17
2023-04-26T05:25:06.730Z,30.34
2023-04-26T05:26:06.710Z,30.47
2023-04-26T05:27:07.012Z,30.58
2023-04-26T05:28:06.722Z,30.61
2023-04-26T05:29:06.669Z,30.72
2023-04-26T05:30:06.997Z,30.72
2023-04-26T05:31:07.547Z,30.80
2023-04-26T05:32:06.667Z,30.94
2023-04-26T05:33:06.684Z,30.86
2023-04-26T05:34:06.646Z,30.94
2023-04-26T05:35:06.995Z,31.27
2023-04-26T05:36:06.596Z,31.33
2023-04-26T05:37:06.587Z,31.48
2023-04-26T05:38:06.578Z,31.43
2023-04-26T05:39:06.564Z,31.39
2023-04-26T05:40:07.001Z,31.47
2023-04-26T05:41:06.532Z,31.57
2023-04-26T05:42:06.517Z,31.53
2023-04-26T05:43:06.494Z,31.53
2023-04-26T05:44:06.484Z,31.46
2023-04-26T05:45:06.468Z,31.44
2023-04-26T05:46:06.509Z,31.36
2023-04-26T05:47:06.475Z,31.33
2023-04-26T05:48:06.467Z,31.45
2023-04-26T05:49:06.425Z,31.44
2023-04-26T05:50:06.511Z,31.45
2023-04-26T05:51:06.386Z,32.03
2023-04-26T05:52:06.375Z,32.46
2023-04-26T05:53:06.410Z,31.92
2023-04-26T05:54:06.556Z,32.33
2023-04-26T05:55:06.528Z,32.41
2023-04-26T05:56:06.332Z,33.18
2023-04-26T05:57:06.400Z,32.89
2023-04-26T05:58:06.346Z,33.04
2023-04-26T05:59:06.525Z,33.03
2023-04-26T06:00:06.339Z,33.87
2023-04-26T06:01:06.293Z,34.02
2023-04-26T06:02:06.515Z,34.31
2023-04-26T06:03:06.551Z,34.67
2023-04-26T06:04:07.027Z,34.27
2023-04-26T06:05:06.744Z,34.31
2023-04-26T06:06:13.662Z,34.44
2023-04-26T06:07:06.246Z,34.53
2023-04-26T06:08:06.508Z,34.47
2023-04-26T06:09:06.217Z,34.45
2023-04-26T06:10:06.514Z,34.36
2023-04-26T06:11:06.192Z,34.63
2023-04-26T06:12:06.222Z,34.52
2023-04-26T06:13:06.222Z,34.61
2023-04-26T06:14:06.814Z,34.50
2023-04-26T06:15:07.509Z,34.58
2023-04-26T06:16:06.155Z,34.44
2023-04-26T06:17:06.207Z,34.69
2023-04-26T06:18:06.219Z,34.88
2023-04-26T06:19:06.340Z,34.91
2023-04-26T06:20:06.510Z,34.91
2023-04-26T06:21:06.315Z,35.00
2023-04-26T06:22:06.368Z,35.03
2023-04-26T06:23:06.407Z,35.03
2023-04-26T06:24:06.436Z,35.09
2023-04-26T06:25:06.469Z,35.13
2023-04-26T06:26:06.508Z,35.32
2023-04-26T06:27:06.511Z,35.44
2023-04-26T06:28:06.542Z,35.09
2023-04-26T06:29:06.567Z,34.97
2023-04-26T06:30:06.583Z,34.62
2023-04-26T06:31:07.060Z,34.49
2023-04-26T06:32:06.628Z,34.51
2023-04-26T06:33:06.722Z,34.38
2023-04-26T06:34:08.408Z,34.60
2023-04-26T06:35:06.704Z,34.72
2023-04-26T06:36:06.637Z,34.44
2023-04-26T06:37:07.024Z,35.01
2023-04-26T06:38:06.882Z,35.34
2023-04-26T06:39:06.576Z,34.69
2023-04-26T06:40:06.596Z,34.52
2023-04-26T06:41:07.016Z,34.33
2023-04-26T06:42:06.533Z,34.20
2023-04-26T06:43:06.481Z,34.21
2023-04-26T06:44:06.461Z,34.25
2023-04-26T06:45:06.525Z,34.37
2023-04-26T06:46:06.454Z,34.16
2023-04-26T06:47:06.396Z,34.14
2023-04-26T06:48:07.129Z,34.13
2023-04-26T06:49:06.364Z,34.05
2023-04-26T06:50:06.534Z,33.93
2023-04-26T06:51:06.551Z,33.75
2023-04-26T06:52:06.297Z,33.52
2023-04-26T06:53:06.272Z,32.93
2023-04-26T06:54:06.280Z,32.75
2023-04-26T06:55:06.527Z,32.50
2023-04-26T06:56:07.979Z,32.09
2023-04-26T06:57:06.226Z,31.80
2023-04-26T06:58:06.230Z,31.93
2023-04-26T06:59:06.191Z,31.75
2023-04-26T07:00:06.574Z,31.74
2023-04-26T07:01:06.167Z,31.50
2023-04-26T07:02:06.677Z,31.20
2023-04-26T07:03:06.228Z,31.25
2023-04-26T07:04:06.227Z,31.32
2023-04-26T07:05:06.372Z,31.20
2023-04-26T07:06:06.082Z,30.98
2023-04-26T07:07:06.084Z,31.11
2023-04-26T07:08:06.539Z,30.81
2023-04-26T07:09:05.987Z,30.97
2023-04-26T07:10:06.346Z,30.86
2023-04-26T07:11:05.959Z,30.89
2023-04-26T07:12:06.142Z,30.84
2023-04-26T07:13:08.267Z,30.92
2023-04-26T07:14:05.877Z,30.66
2023-04-26T07:15:05.871Z,30.77
2023-04-26T07:16:05.882Z,30.62
2023-04-26T07:17:05.831Z,30.67
2023-04-26T07:18:06.056Z,30.48
2023-04-26T07:19:05.802Z,30.35
2023-04-26T07:20:06.040Z,30.49
2023-04-26T07:21:05.769Z,30.51
2023-04-26T07:22:05.766Z,30.48
2023-04-26T07:23:06.096Z,30.31
2023-04-26T07:24:05.699Z,30.32
2023-04-26T07:25:05.686Z,30.32
2023-04-26T07:26:05.696Z,30.47
2023-04-26T07:27:05.652Z,30.34
2023-04-26T07:28:06.044Z,30.42
2023-04-26T07:29:05.601Z,30.41
2023-04-26T07:30:05.800Z,30.67
2023-04-26T07:31:08.490Z,30.64
2023-04-26T07:32:05.592Z,30.84
2023-04-26T07:33:05.641Z,30.58
2023-04-26T07:34:05.518Z,30.58
2023-04-26T07:35:05.506Z,30.51
2023-04-26T07:36:05.469Z,30.59
2023-04-26T07:37:05.460Z,30.61
2023-04-26T07:38:05.549Z,30.62
2023-04-26T07:39:05.542Z,30.50
2023-04-26T07:40:05.435Z,30.48
2023-04-26T07:41:12.941Z,30.53
2023-04-26T07:42:05.763Z,30.39
2023-04-26T07:43:05.366Z,30.45
2023-04-26T07:44:05.327Z,30.45
2023-04-26T07:45:05.551Z,30.46
2023-04-26T07:46:05.301Z,30.41
2023-04-26T07:47:05.246Z,30.46
2023-04-26T07:48:05.213Z,30.40
2023-04-26T07:49:05.159Z,30.37
2023-04-26T07:50:05.540Z,30.30
2023-04-26T07:51:05.548Z,30.37
2023-04-26T07:52:05.096Z,30.32
2023-04-26T07:53:05.054Z,30.35
2023-04-26T07:54:05.013Z,30.64
2023-04-26T07:55:05.073Z,30.68
2023-04-26T07:56:05.047Z,30.85
2023-04-26T07:57:04.943Z,30.78
2023-04-26T07:58:04.932Z,31.06
2023-04-26T07:59:04.921Z,30.84
2023-04-26T08:00:05.149Z,30.70
2023-04-26T08:01:05.050Z,30.58
2023-04-26T08:02:05.071Z,30.59
2023-04-26T08:03:04.911Z,30.50
2023-04-26T08:04:04.966Z,30.58
2023-04-26T08:05:05.206Z,30.72
2023-04-26T08:06:05.178Z,30.60
2023-04-26T08:07:04.644Z,30.52
2023-04-26T08:08:04.612Z,30.38
2023-04-26T08:09:04.587Z,30.34
2023-04-26T08:10:04.543Z,30.38
2023-04-26T08:11:04.730Z,30.34
2023-04-26T08:12:04.612Z,30.33
2023-04-26T08:13:04.470Z,30.33
2023-04-26T08:14:04.426Z,30.37
2023-04-26T08:15:04.555Z,30.28
2023-04-26T08:16:04.556Z,30.26
2023-04-26T08:17:04.419Z,30.25
2023-04-26T08:19:03.271Z,30.21
2023-04-26T08:20:04.246Z,30.10
2023-04-26T08:21:04.606Z,29.97
2023-04-26T08:22:04.193Z,30.05
2023-04-26T08:23:04.146Z,30.16
2023-04-26T08:24:04.124Z,30.19
2023-04-26T08:25:04.074Z,30.18
2023-04-26T08:26:04.078Z,30.24
2023-04-26T08:27:04.156Z,30.15
2023-04-26T08:28:04.023Z,30.20
2023-04-26T08:29:04.054Z,30.11
2023-04-26T08:30:04.076Z,30.09
2023-04-26T08:31:04.621Z,29.99
2023-04-26T08:32:04.352Z,30.24
2023-04-26T08:33:04.221Z,30.24
2023-04-26T08:34:04.205Z,30.23
2023-04-26T08:35:04.251Z,30.09
2023-04-26T08:36:04.571Z,30.08
2023-04-26T08:37:04.589Z,30.15
2023-04-26T08:38:04.285Z,30.03
2023-04-26T08:39:04.305Z,29.92
2023-04-26T08:40:05.408Z,29.78
2023-04-26T08:41:04.551Z,30.03
2023-04-26T08:42:04.363Z,30.17
2023-04-26T08:43:04.462Z,30.17
2023-04-26T08:44:04.959Z,30.01
2023-04-26T08:45:04.397Z,30.19
2023-04-26T08:46:05.068Z,29.95
2023-04-26T08:47:05.413Z,29.97
2023-04-26T08:48:04.958Z,29.94
2023-04-26T08:49:04.426Z,30.08
2023-04-26T08:50:04.443Z,30.39
2023-04-26T08:51:04.443Z,30.51
2023-04-26T08:52:05.058Z,30.58
2023-04-26T08:53:04.498Z,30.65
2023-04-26T08:54:05.075Z,30.71
2023-04-26T08:55:04.438Z,30.84
2023-04-26T08:56:04.558Z,30.89
2023-04-26T08:57:04.441Z,30.75
2023-04-26T08:58:04.441Z,30.69
2023-04-26T08:59:04.461Z,30.68
2023-04-26T09:00:04.433Z,30.60
2023-04-26T09:01:05.070Z,30.61
2023-04-26T09:02:04.498Z,30.63
2023-04-26T09:03:04.549Z,30.67
2023-04-26T09:04:04.572Z,30.72
2023-04-26T09:05:05.221Z,30.63
2023-04-26T09:06:04.594Z,30.56
2023-04-26T09:07:04.414Z,30.66
2023-04-26T09:08:04.419Z,30.49
2023-04-26T09:09:04.444Z,30.51
2023-04-26T09:10:04.394Z,30.54
2023-04-26T09:11:04.588Z,30.53
2023-04-26T09:12:04.385Z,30.49
2023-04-26T09:13:04.382Z,30.55
2023-04-26T09:14:04.347Z,30.56
2023-04-26T09:15:04.461Z,30.61
2023-04-26T09:16:05.117Z,30.57
2023-04-26T09:17:04.300Z,30.44
2023-04-26T09:18:04.293Z,30.53
2023-04-26T09:19:04.268Z,30.43
2023-04-26T09:20:05.911Z,30.47
2023-04-26T09:21:04.575Z,30.46
2023-04-26T09:22:04.153Z,30.46
2023-04-26T09:23:04.101Z,30.45
2023-04-26T09:24:04.073Z,30.41
2023-04-26T09:25:04.066Z,30.75
2023-04-26T09:26:03.994Z,30.64
2023-04-26T09:27:03.972Z,30.74
2023-04-26T09:28:04.052Z,30.57
2023-04-26T09:29:04.077Z,30.53
2023-04-26T09:30:03.809Z,30.63
2023-04-26T09:31:04.260Z,30.55
2023-04-26T09:32:03.697Z,30.61
2023-04-26T09:33:03.688Z,30.45
2023-04-26T09:34:03.625Z,30.37
2023-04-26T09:35:03.562Z,30.22
2023-04-26T09:36:03.577Z,30.11
2023-04-26T09:37:03.488Z,30.14
2023-04-26T09:38:07.944Z,30.13
2023-04-26T09:39:03.370Z,30.03
2023-04-26T09:40:03.344Z,30.13
2023-04-26T09:41:03.610Z,29.94
2023-04-26T09:42:06.407Z,29.88
2023-04-26T09:43:03.184Z,29.79
2023-04-26T09:44:03.121Z,29.66
2023-04-26T09:45:03.056Z,29.54
2023-04-26T09:46:03.075Z,29.56
2023-04-26T09:47:03.097Z,29.55
2023-04-26T09:48:02.913Z,29.48
2023-04-26T09:49:02.842Z,29.38
2023-04-26T09:50:03.139Z,29.26
2023-04-26T09:51:03.081Z,29.17
2023-04-26T09:52:03.715Z,29.17
2023-04-26T09:53:02.800Z,29.02
2023-04-26T09:54:02.806Z,28.88
2023-04-26T09:55:02.716Z,28.82
2023-04-26T09:56:03.091Z,28.78
2023-04-26T09:57:02.672Z,28.72
2023-04-26T09:58:02.625Z,28.63
2023-04-26T09:59:02.602Z,28.55
2023-04-26T10:00:02.603Z,28.61
2023-04-26T10:01:02.629Z,28.49
2023-04-26T10:02:02.471Z,28.60
2023-04-26T10:03:02.698Z,28.61
2023-04-26T10:04:02.557Z,28.67
2023-04-26T10:05:02.507Z,28.76
2023-04-26T10:06:02.585Z,28.63
2023-04-26T10:07:02.294Z,28.52
2023-04-26T10:08:02.259Z,28.51
2023-04-26T10:09:02.217Z,28.63
2023-04-26T10:10:02.184Z,28.67
2023-04-26T10:11:02.602Z,28.56
2023-04-26T10:12:02.070Z,28.54
2023-04-26T10:13:02.079Z,28.48
2023-04-26T10:14:02.006Z,28.47
2023-04-26T10:15:01.962Z,28.58
2023-04-26T10:16:02.305Z,28.45
2023-04-26T10:17:01.880Z,28.49
2023-04-26T10:18:02.141Z,28.58
2023-04-26T10:19:01.817Z,28.47
2023-04-26T10:20:01.747Z,28.33
2023-04-26T10:21:01.719Z,28.39
2023-04-26T10:22:01.704Z,28.45
2023-04-26T10:23:02.090Z,28.50
2023-04-26T10:24:01.600Z,28.64
2023-04-26T10:25:01.578Z,28.60
2023-04-26T10:26:01.625Z,28.69
2023-04-26T10:27:01.521Z,28.74
2023-04-26T10:28:01.470Z,28.66
2023-04-26T10:29:02.925Z,28.55
2023-04-26T10:30:00.794Z,28.76
2023-04-26T10:31:01.976Z,28.71
2023-04-26T10:32:01.966Z,28.54
2023-04-26T10:33:01.710Z,28.43
2023-04-26T10:34:01.647Z,27.80
2023-04-26T10:35:01.513Z,27.75
2023-04-26T10:36:01.285Z,27.55
2023-04-26T10:37:01.448Z,26.83
2023-04-26T10:38:01.364Z,27.15
2023-04-26T10:39:01.226Z,27.51
2023-04-26T10:40:01.265Z,27.41
2023-04-26T10:41:01.187Z,27.47
2023-04-26T10:42:00.769Z,26.73
2023-04-26T10:43:01.535Z,27.26
2023-04-26T10:44:01.022Z,27.11
2023-04-26T10:45:00.991Z,26.82
2023-04-26T10:46:01.016Z,26.68
2023-04-26T10:47:00.954Z,26.49
2023-04-26T10:48:00.771Z,26.97
2023-04-26T10:49:00.938Z,26.95
2023-04-26T10:50:00.327Z,26.82
2023-04-26T10:51:00.641Z,26.96
2023-04-26T10:52:00.221Z,26.63
2023-04-26T10:53:01.188Z,27.17
2023-04-26T10:54:00.132Z,27.34
2023-04-26T10:55:00.178Z,27.37
2023-04-26T10:56:00.606Z,27.58
2023-04-26T10:57:00.144Z,27.47
2023-04-26T10:58:00.601Z,27.72
2023-04-26T10:59:00.186Z,27.84
2023-04-26T11:00:00.244Z,27.82
2023-04-26T11:01:00.253Z,27.72
2023-04-26T11:02:00.222Z,27.85
2023-04-26T11:03:00.267Z,27.84
2023-04-26T11:04:00.925Z,27.79
2023-04-26T11:05:00.415Z,27.90
2023-04-26T11:06:00.608Z,27.91
2023-04-26T11:07:00.289Z,28.19
2023-04-26T11:08:00.173Z,27.93
2023-04-26T11:09:00.653Z,27.88
2023-04-26T11:10:00.215Z,28.02
2023-04-26T11:11:00.863Z,27.99
2023-04-26T11:12:00.147Z,27.65
2023-04-26T11:13:00.142Z,27.68
2023-04-26T11:14:00.149Z,27.85
2023-04-26T11:15:00.159Z,27.75
2023-04-26T11:16:01.473Z,27.75
2023-04-26T11:17:00.706Z,27.87
2023-04-26T11:18:00.226Z,27.77
2023-04-26T11:19:00.132Z,27.69
2023-04-26T11:20:00.133Z,27.73
2023-04-26T11:21:00.175Z,27.66
2023-04-26T11:22:00.121Z,27.62
2023-04-26T11:23:00.156Z,27.53
2023-04-26T11:24:00.140Z,27.42
2023-04-26T11:25:00.193Z,27.44
2023-04-26T11:26:00.135Z,27.39
2023-04-26T11:27:00.142Z,27.57
2023-04-26T11:28:00.136Z,27.67
2023-04-26T11:29:00.109Z,27.61
2023-04-26T11:30:00.127Z,27.66
2023-04-26T11:31:00.145Z,27.77
2023-04-26T11:32:00.610Z,27.67
2023-04-26T11:33:00.215Z,27.63
2023-04-26T11:34:00.122Z,27.66
2023-04-26T11:35:00.047Z,27.67
2023-04-26T11:36:00.231Z,27.61
2023-04-26T11:37:00.031Z,27.59
2023-04-26T11:38:00.017Z,27.64
2023-04-26T11:39:00.121Z,27.66
2023-04-26T11:40:00.006Z,27.64
2023-04-26T11:41:00.016Z,27.59
2023-04-26T11:41:59.981Z,27.56
2023-04-26T11:42:59.972Z,27.52
2023-04-26T11:44:00.022Z,27.37
2023-04-26T11:44:59.961Z,27.61
2023-04-26T11:45:59.969Z,27.55
2023-04-26T11:46:59.971Z,27.56
2023-04-26T11:48:00.018Z,27.52
2023-04-26T11:48:59.915Z,27.48
2023-04-26T11:49:59.911Z,27.26
2023-04-26T11:50:59.917Z,27.37
2023-04-26T11:51:59.896Z,27.59
2023-04-26T11:52:59.886Z,27.47
2023-04-26T11:53:59.899Z,27.44
2023-04-26T11:54:59.883Z,27.51
2023-04-26T11:55:59.844Z,27.53
2023-04-26T11:56:59.819Z,27.50
2023-04-26T11:57:59.799Z,27.48
2023-04-26T11:59:00.665Z,27.58
2023-04-26T11:59:59.780Z,27.60
2023-04-26T12:00:59.729Z,27.60
2023-04-26T12:02:00.193Z,27.60
2023-04-26T12:02:59.891Z,27.53
2023-04-26T12:04:00.584Z,27.58
2023-04-26T12:04:59.874Z,27.33
2023-04-26T12:05:59.637Z,27.43
2023-04-26T12:06:59.593Z,27.61
2023-04-26T12:07:59.571Z,27.43
2023-04-26T12:08:59.537Z,27.42
2023-04-26T12:10:00.811Z,27.43
2023-04-26T12:10:59.724Z,27.48
2023-04-26T12:11:59.538Z,27.57
2023-04-26T12:12:59.515Z,27.60
2023-04-26T12:13:59.499Z,27.74
2023-04-26T12:14:59.501Z,27.75
2023-04-26T12:15:59.453Z,27.80
2023-04-26T12:16:59.481Z,27.65
2023-04-26T12:17:59.665Z,27.65
2023-04-26T12:18:59.383Z,27.89
2023-04-26T12:19:59.363Z,28.00
2023-04-26T12:20:59.345Z,27.82
2023-04-26T12:21:59.632Z,27.75
2023-04-26T12:22:59.308Z,27.75
2023-04-26T12:23:59.292Z,27.93
2023-04-26T12:24:59.258Z,28.07
2023-04-26T12:25:59.244Z,28.07
2023-04-26T12:27:01.628Z,27.90
2023-04-26T12:27:59.163Z,28.15
2023-04-26T12:28:59.115Z,28.17
2023-04-26T12:29:59.069Z,28.26
2023-04-26T12:30:59.016Z,28.27
2023-04-26T12:31:59.051Z,28.19
2023-04-26T12:33:09.187Z,27.66
2023-04-26T12:33:58.843Z,27.82
2023-04-26T12:34:58.791Z,27.25
2023-04-26T12:35:58.738Z,26.94
2023-04-26T12:36:58.712Z,26.90
2023-04-26T12:37:58.636Z,26.41
2023-04-26T12:38:58.667Z,25.94
2023-04-26T12:39:58.527Z,25.59
2023-04-26T12:40:58.509Z,26.15
2023-04-26T12:41:58.476Z,26.02
2023-04-26T12:42:58.395Z,25.47
2023-04-26T12:43:58.317Z,25.31
2023-04-26T12:44:58.287Z,25.34
2023-04-26T12:45:58.358Z,25.35
2023-04-26T12:46:58.283Z,25.38
2023-04-26T12:47:58.229Z,25.21
2023-04-26T12:49:02.954Z,25.81
2023-04-26T12:49:58.057Z,25.60
2023-04-26T12:50:58.017Z,25.37
2023-04-26T12:51:57.983Z,25.41
2023-04-26T12:52:57.919Z,25.29
2023-04-26T12:53:57.845Z,25.52